createdAt,value
2023-07-23T00:00:12.627Z,95768.56
2023-07-23T00:01:17.226Z,95766.25
2023-07-23T00:02:18.878Z,95746.78
2023-07-23T00:03:20.488Z,95763.88
2023-07-23T00:04:22.127Z,95758.22
2023-07-23T00:05:27.662Z,95767.84
2023-07-23T00:06:29.271Z,95757.25
2023-07-23T00:07:31.345Z,95767.84
2023-07-23T00:08:33.011Z,95748.09
2023-07-23T00:09:34.784Z,95760.22
2023-07-23T00:10:36.386Z,95756.03
2023-07-23T00:11:38.018Z,95764.66
2023-07-23T00:12:39.734Z,95764.63
2023-07-23T00:13:41.299Z,95754.28
2023-07-23T00:14:42.893Z,95764.63
2023-07-23T00:15:44.560Z,95744.97
2023-07-23T00:16:46.477Z,95765.25
2023-07-23T00:17:49.075Z,95760.06
2023-07-23T00:18:50.803Z,95753.28
2023-07-23T00:19:52.413Z,95756.03
2023-07-23T00:20:54.025Z,95764.19
2023-07-23T00:21:55.570Z,95757.28
2023-07-23T00:22:57.142Z,95756.84
2023-07-23T00:23:58.704Z,95755.63
2023-07-23T00:25:00.418Z,95756.97
2023-07-23T00:26:01.988Z,95759.72
2023-07-23T00:27:03.931Z,95745.28
2023-07-23T00:28:05.577Z,95751.34
2023-07-23T00:29:07.251Z,95763.09
2023-07-23T00:30:09.412Z,95751.94
2023-07-23T00:31:11.211Z,95762.41
2023-07-23T00:32:12.863Z,95754.38
2023-07-23T00:33:14.550Z,95755.00
2023-07-23T00:34:16.134Z,95758.47
2023-07-23T00:35:21.375Z,95762.06
2023-07-23T00:36:23.100Z,95763.91
2023-07-23T00:37:24.852Z,95756.44
2023-07-23T00:38:26.530Z,95760.69
2023-07-23T00:39:29.998Z,95759.69
2023-07-23T00:40:31.607Z,95757.50
2023-07-23T00:41:33.361Z,95765.00
2023-07-23T00:42:35.226Z,95750.44
2023-07-23T00:43:36.807Z,95764.53
2023-07-23T00:44:38.641Z,95745.50
2023-07-23T00:45:40.532Z,95756.53
2023-07-23T00:46:42.298Z,95752.06
2023-07-23T00:47:44.344Z,95752.06
2023-07-23T00:48:45.988Z,95763.22
2023-07-23T00:49:47.623Z,95752.50
2023-07-23T00:50:49.288Z,95753.94
2023-07-23T00:51:51.767Z,95748.84
2023-07-23T00:52:53.557Z,95751.63
2023-07-23T00:53:55.135Z,95744.28
2023-07-23T00:54:56.786Z,95749.19
2023-07-23T00:56:00.034Z,95745.94
2023-07-23T00:57:03.710Z,95754.47
2023-07-23T00:58:05.379Z,95757.34
2023-07-23T00:59:08.239Z,95755.53
2023-07-23T01:00:16.115Z,95757.13
2023-07-23T01:01:19.255Z,95750.75
2023-07-23T01:02:20.811Z,95748.47
2023-07-23T01:03:22.446Z,95740.78
2023-07-23T01:04:24.699Z,95738.06
2023-07-23T01:05:27.173Z,95750.19
2023-07-23T01:06:28.643Z,95749.84
2023-07-23T01:07:31.226Z,95738.91
2023-07-23T01:08:35.952Z,95737.69
2023-07-23T01:09:38.164Z,95761.03
2023-07-23T01:10:40.563Z,95758.50
2023-07-23T01:11:42.291Z,95752.41
2023-07-23T01:12:44.152Z,95753.78
2023-07-23T01:13:46.032Z,95757.47
2023-07-23T01:14:47.702Z,95744.56
2023-07-23T01:15:49.364Z,95749.56
2023-07-23T01:16:51.067Z,95742.28
2023-07-23T01:17:53.164Z,95747.41
2023-07-23T01:18:55.251Z,95749.75
2023-07-23T01:20:22.485Z,95741.78
2023-07-23T01:21:24.195Z,95748.44
2023-07-23T01:22:25.777Z,95749.06
2023-07-23T01:23:27.349Z,95744.88
2023-07-23T01:24:29.748Z,95749.19
2023-07-23T01:25:31.481Z,95742.28
2023-07-23T01:26:33.229Z,95739.06
2023-07-23T01:27:34.852Z,95742.13
2023-07-23T01:28:37.129Z,95739.69
2023-07-23T01:29:38.750Z,95737.47
2023-07-23T01:30:40.809Z,95729.88
2023-07-23T01:31:42.402Z,95734.34
2023-07-23T01:32:44.161Z,95729.41
2023-07-23T01:33:46.289Z,95722.72
2023-07-23T01:34:48.490Z,95741.13
2023-07-23T01:35:55.816Z,95737.09
2023-07-23T01:36:57.414Z,95739.88
2023-07-23T01:37:59.588Z,95734.22
2023-07-23T01:39:01.206Z,95706.31
2023-07-23T01:40:03.678Z,95724.47
2023-07-23T01:41:05.422Z,95736.91
2023-07-23T01:42:12.727Z,95728.41
2023-07-23T01:43:14.739Z,95729.31
2023-07-23T01:44:16.421Z,95728.06
2023-07-23T01:45:18.228Z,95732.53
2023-07-23T01:46:19.794Z,95735.78
2023-07-23T01:47:21.483Z,95720.38
2023-07-23T01:48:23.857Z,95717.25
2023-07-23T01:49:25.402Z,95727.84
2023-07-23T01:50:27.062Z,95729.25
2023-07-23T01:51:28.901Z,95722.00
2023-07-23T01:52:30.730Z,95731.34
2023-07-23T01:53:32.249Z,95731.59
2023-07-23T01:54:33.905Z,95718.59
2023-07-23T01:55:35.741Z,95708.78
2023-07-23T01:56:37.299Z,95718.47
2023-07-23T01:57:38.914Z,95732.75
2023-07-23T01:58:40.522Z,95726.38
2023-07-23T01:59:42.161Z,95730.09
2023-07-23T02:00:43.841Z,95724.00
2023-07-23T02:01:45.409Z,95724.91
2023-07-23T02:02:47.077Z,95724.03
2023-07-23T02:03:48.726Z,95726.13
2023-07-23T02:04:50.441Z,95718.19
2023-07-23T02:06:00.468Z,95723.09
2023-07-23T02:07:02.448Z,95721.97
2023-07-23T02:08:04.235Z,95712.13
2023-07-23T02:09:05.805Z,95718.09
2023-07-23T02:10:08.121Z,95707.59
2023-07-23T02:11:09.749Z,95721.50
2023-07-23T02:12:11.448Z,95713.22
2023-07-23T02:13:13.040Z,95728.38
2023-07-23T02:14:14.651Z,95720.78
2023-07-23T02:15:16.583Z,95712.22
2023-07-23T02:16:19.211Z,95724.00
2023-07-23T02:17:20.928Z,95714.25
2023-07-23T02:18:22.716Z,95722.88
2023-07-23T02:19:24.586Z,95721.22
2023-07-23T02:20:26.252Z,95716.13
2023-07-23T02:21:28.214Z,95712.03
2023-07-23T02:22:29.926Z,95715.94
2023-07-23T02:23:31.470Z,95717.53
2023-07-23T02:24:33.084Z,95711.47
2023-07-23T02:25:38.465Z,95712.59
2023-07-23T02:26:40.055Z,95712.34
2023-07-23T02:27:41.698Z,95714.06
2023-07-23T02:28:44.993Z,95723.19
2023-07-23T02:29:46.820Z,95733.31
2023-07-23T02:30:56.472Z,95713.91
2023-07-23T02:31:58.133Z,95714.34
2023-07-23T02:32:59.767Z,95711.31
2023-07-23T02:34:01.414Z,95721.53
2023-07-23T02:35:03.370Z,95719.19
2023-07-23T02:36:05.252Z,95718.16
2023-07-23T02:37:06.852Z,95723.06
2023-07-23T02:38:08.459Z,95707.69
2023-07-23T02:39:10.049Z,95724.16
2023-07-23T02:40:12.323Z,95728.47
2023-07-23T02:41:13.982Z,95719.44
2023-07-23T02:42:15.558Z,95718.19
2023-07-23T02:43:17.109Z,95721.66
2023-07-23T02:44:18.709Z,95715.53
2023-07-23T02:45:20.358Z,95719.56
2023-07-23T02:46:22.028Z,95717.34
2023-07-23T02:47:23.658Z,95712.47
2023-07-23T02:48:25.276Z,95720.19
2023-07-23T02:49:26.890Z,95721.72
2023-07-23T02:50:28.624Z,95727.00
2023-07-23T02:51:30.496Z,95719.25
2023-07-23T02:52:32.364Z,95716.31
2023-07-23T02:53:34.035Z,95719.44
2023-07-23T02:54:35.629Z,95729.31
2023-07-23T02:55:37.434Z,95730.00
2023-07-23T02:56:39.047Z,95725.28
2023-07-23T02:57:40.671Z,95723.31
2023-07-23T02:58:42.428Z,95720.69
2023-07-23T02:59:44.059Z,95716.88
2023-07-23T03:00:45.950Z,95729.44
2023-07-23T03:01:47.744Z,95731.22
2023-07-23T03:02:50.150Z,95723.88
2023-07-23T03:03:52.097Z,95728.50
2023-07-23T03:04:53.735Z,95713.75
2023-07-23T03:05:55.337Z,95723.97
2023-07-23T03:06:57.091Z,95727.75
2023-07-23T03:07:58.812Z,95721.13
2023-07-23T03:09:00.465Z,95720.31
2023-07-23T03:10:02.186Z,95726.81
2023-07-23T03:11:06.420Z,95719.66
2023-07-23T03:12:11.085Z,95712.88
2023-07-23T03:13:13.018Z,95718.09
2023-07-23T03:14:14.649Z,95709.50
2023-07-23T03:15:16.251Z,95719.06
2023-07-23T03:16:18.753Z,95705.50
2023-07-23T03:17:20.351Z,95711.97
2023-07-23T03:18:21.947Z,95725.75
2023-07-23T03:19:23.546Z,95718.88
2023-07-23T03:20:25.137Z,95715.00
2023-07-23T03:21:26.960Z,95719.44
2023-07-23T03:22:28.789Z,95721.97
2023-07-23T03:23:30.406Z,95709.66
2023-07-23T03:24:32.096Z,95707.50
2023-07-23T03:25:33.769Z,95713.16
2023-07-23T03:26:35.358Z,95714.31
2023-07-23T03:27:38.124Z,95703.72
2023-07-23T03:28:40.789Z,95711.63
2023-07-23T03:29:42.369Z,95710.75
2023-07-23T03:30:44.101Z,95695.81
2023-07-23T03:31:45.710Z,95716.97
2023-07-23T03:32:47.358Z,95694.09
2023-07-23T03:33:48.975Z,95708.69
2023-07-23T03:34:50.594Z,95713.41
2023-07-23T03:35:52.245Z,95707.03
2023-07-23T03:36:53.831Z,95712.34
2023-07-23T03:37:55.703Z,95710.75
2023-07-23T03:38:57.317Z,95705.91
2023-07-23T03:39:58.952Z,95704.22
2023-07-23T03:41:00.554Z,95680.78
2023-07-23T03:42:02.175Z,95701.00
2023-07-23T03:43:04.512Z,95698.50
2023-07-23T03:44:06.073Z,95707.63
2023-07-23T03:45:08.123Z,95691.91
2023-07-23T03:46:09.795Z,95707.50
2023-07-23T03:47:14.463Z,95707.34
2023-07-23T03:48:16.050Z,95688.84
2023-07-23T03:49:17.833Z,95696.41
2023-07-23T03:50:20.099Z,95690.81
2023-07-23T03:51:22.312Z,95704.56
2023-07-23T03:52:24.096Z,95692.97
2023-07-23T03:53:25.700Z,95696.53
2023-07-23T03:54:27.328Z,95696.41
2023-07-23T03:55:28.945Z,95696.03
2023-07-23T03:56:30.785Z,95697.25
2023-07-23T03:57:33.611Z,95696.38
2023-07-23T03:58:37.895Z,95688.34
2023-07-23T03:59:41.175Z,95698.41
2023-07-23T04:00:43.021Z,95683.59
2023-07-23T04:01:44.696Z,95698.84
2023-07-23T04:02:46.613Z,95700.16
2023-07-23T04:03:48.257Z,95707.31
2023-07-23T04:04:49.856Z,95704.19
2023-07-23T04:05:51.482Z,95701.72
2023-07-23T04:06:53.084Z,95704.72
2023-07-23T04:07:54.685Z,95705.09
2023-07-23T04:08:56.351Z,95691.97
2023-07-23T04:09:58.075Z,95697.34
2023-07-23T04:10:59.660Z,95698.41
2023-07-23T04:12:01.716Z,95702.19
2023-07-23T04:13:04.587Z,95715.19
2023-07-23T04:14:08.106Z,95698.25
2023-07-23T04:15:09.975Z,95686.91
2023-07-23T04:16:12.191Z,95705.84
2023-07-23T04:17:17.740Z,95694.84
2023-07-23T04:18:19.845Z,95702.53
2023-07-23T04:19:21.666Z,95695.09
2023-07-23T04:20:23.572Z,95707.72
2023-07-23T04:21:27.001Z,95696.28
2023-07-23T04:22:28.800Z,95707.59
2023-07-23T04:23:30.379Z,95696.44
2023-07-23T04:24:32.065Z,95712.88
2023-07-23T04:25:33.680Z,95704.25
2023-07-23T04:26:35.444Z,95709.25
2023-07-23T04:27:37.049Z,95699.09
2023-07-23T04:28:38.646Z,95698.53
2023-07-23T04:29:40.234Z,95693.31
2023-07-23T04:30:41.850Z,95706.28
2023-07-23T04:31:43.554Z,95695.41
2023-07-23T04:32:45.260Z,95703.94
2023-07-23T04:33:47.092Z,95690.28
2023-07-23T04:34:49.262Z,95697.34
2023-07-23T04:35:51.232Z,95707.56
2023-07-23T04:36:53.537Z,95687.47
2023-07-23T04:37:55.196Z,95706.31
2023-07-23T04:38:56.824Z,95713.03
2023-07-23T04:39:58.525Z,95686.19
2023-07-23T04:41:00.165Z,95707.28
2023-07-23T04:42:01.757Z,95696.06
2023-07-23T04:43:04.430Z,95705.91
2023-07-23T04:44:06.106Z,95693.63
2023-07-23T04:45:08.195Z,95710.09
2023-07-23T04:46:10.350Z,95707.53
2023-07-23T04:47:12.038Z,95690.25
2023-07-23T04:48:15.178Z,95707.56
2023-07-23T04:49:16.903Z,95708.03
2023-07-23T04:50:18.570Z,95708.72
2023-07-23T04:51:20.189Z,95705.94
2023-07-23T04:52:21.808Z,95708.97
2023-07-23T04:53:24.818Z,95705.47
2023-07-23T04:54:26.414Z,95701.53
2023-07-23T04:55:28.066Z,95701.16
2023-07-23T04:56:29.624Z,95701.56
2023-07-23T04:57:31.285Z,95698.72
2023-07-23T04:58:33.706Z,95697.09
2023-07-23T04:59:35.281Z,95702.28
2023-07-23T05:00:36.885Z,95705.28
2023-07-23T05:01:38.627Z,95697.41
2023-07-23T05:02:40.354Z,95690.34
2023-07-23T05:03:42.026Z,95702.94
2023-07-23T05:04:43.651Z,95709.25
2023-07-23T05:05:50.660Z,95704.00
2023-07-23T05:06:52.279Z,95697.94
2023-07-23T05:07:53.891Z,95704.94
2023-07-23T05:08:55.468Z,95701.06
2023-07-23T05:09:57.077Z,95702.41
2023-07-23T05:11:03.651Z,95696.06
2023-07-23T05:12:05.687Z,95706.16
2023-07-23T05:13:07.492Z,95707.22
2023-07-23T05:14:09.103Z,95706.09
2023-07-23T05:15:14.424Z,95705.41
2023-07-23T05:16:16.136Z,95700.97
2023-07-23T05:17:17.824Z,95705.13
2023-07-23T05:18:20.053Z,95700.47
2023-07-23T05:19:21.591Z,95702.25
2023-07-23T05:20:23.231Z,95699.06
2023-07-23T05:21:24.845Z,95700.25
2023-07-23T05:22:26.503Z,95701.16
2023-07-23T05:23:28.083Z,95698.69
2023-07-23T05:24:29.635Z,95702.72
2023-07-23T05:25:31.326Z,95699.88
2023-07-23T05:26:32.929Z,95698.25
2023-07-23T05:27:34.923Z,95690.63
2023-07-23T05:28:36.543Z,95695.16
2023-07-23T05:29:38.142Z,95704.81
2023-07-23T05:30:40.286Z,95699.56
2023-07-23T05:31:41.977Z,95691.59
2023-07-23T05:32:44.592Z,95692.56
2023-07-23T05:33:46.332Z,95693.03
2023-07-23T05:34:47.950Z,95696.72
2023-07-23T05:35:49.533Z,95696.41
2023-07-23T05:36:51.150Z,95689.41
2023-07-23T05:37:52.783Z,95704.09
2023-07-23T05:38:54.393Z,95691.19
2023-07-23T05:39:56.163Z,95705.81
2023-07-23T05:40:58.769Z,95696.88
2023-07-23T05:42:00.339Z,95705.44
2023-07-23T05:43:01.936Z,95703.66
2023-07-23T05:44:03.580Z,95712.22
2023-07-23T05:45:05.788Z,95708.16
2023-07-23T05:46:07.456Z,95710.59
2023-07-23T05:47:09.069Z,95695.63
2023-07-23T05:48:10.723Z,95715.31
2023-07-23T05:49:12.362Z,95704.00
2023-07-23T05:50:13.957Z,95703.25
2023-07-23T05:51:15.556Z,95713.13
2023-07-23T05:52:17.152Z,95698.03
2023-07-23T05:53:18.880Z,95712.56
2023-07-23T05:54:20.462Z,95705.53
2023-07-23T05:55:22.073Z,95704.41
2023-07-23T05:56:23.712Z,95705.50
2023-07-23T05:57:25.286Z,95710.59
2023-07-23T05:58:28.451Z,95705.56
2023-07-23T05:59:30.301Z,95718.41
2023-07-23T06:00:31.913Z,95709.84
2023-07-23T06:01:33.855Z,95714.59
2023-07-23T06:02:35.697Z,95693.66
2023-07-23T06:03:52.036Z,95716.38
2023-07-23T06:04:55.258Z,95711.16
2023-07-23T06:05:56.870Z,95720.47
2023-07-23T06:06:58.416Z,95719.94
2023-07-23T06:08:00.081Z,95717.94
2023-07-23T06:09:01.712Z,95715.09
2023-07-23T06:10:04.231Z,95717.84
2023-07-23T06:11:05.836Z,95723.91
2023-07-23T06:12:07.629Z,95720.81
2023-07-23T06:13:10.450Z,95715.28
2023-07-23T06:14:12.044Z,95715.81
2023-07-23T06:15:13.730Z,95721.66
2023-07-23T06:16:15.430Z,95730.31
2023-07-23T06:17:17.179Z,95715.66
2023-07-23T06:18:18.797Z,95705.28
2023-07-23T06:19:20.550Z,95717.81
2023-07-23T06:20:22.187Z,95719.13
2023-07-23T06:21:23.857Z,95715.53
2023-07-23T06:22:25.556Z,95719.19
2023-07-23T06:23:27.144Z,95709.13
2023-07-23T06:24:28.844Z,95709.94
2023-07-23T06:25:30.508Z,95715.06
2023-07-23T06:26:32.082Z,95712.09
2023-07-23T06:27:33.740Z,95716.84
2023-07-23T06:28:35.344Z,95714.97
2023-07-23T06:29:36.914Z,95728.03
2023-07-23T06:30:38.533Z,95723.03
2023-07-23T06:31:40.157Z,95712.66
2023-07-23T06:32:42.509Z,95724.47
2023-07-23T06:33:44.188Z,95721.81
2023-07-23T06:34:45.834Z,95715.22
2023-07-23T06:35:48.064Z,95729.22
2023-07-23T06:36:49.672Z,95718.00
2023-07-23T06:37:51.358Z,95728.41
2023-07-23T06:38:53.022Z,95728.84
2023-07-23T06:39:54.732Z,95718.06
2023-07-23T06:40:57.446Z,95725.13
2023-07-23T06:41:59.054Z,95717.53
2023-07-23T06:43:00.616Z,95727.00
2023-07-23T06:44:02.286Z,95719.31
2023-07-23T06:45:04.332Z,95730.19
2023-07-23T06:46:05.954Z,95720.25
2023-07-23T06:47:07.934Z,95719.88
2023-07-23T06:48:09.570Z,95727.88
2023-07-23T06:49:13.290Z,95728.38
2023-07-23T06:50:19.362Z,95726.13
2023-07-23T06:51:20.986Z,95711.88
2023-07-23T06:52:22.750Z,95726.06
2023-07-23T06:53:24.399Z,95724.28
2023-07-23T06:54:26.067Z,95723.00
2023-07-23T06:55:27.768Z,95721.94
2023-07-23T06:56:29.397Z,95720.94
2023-07-23T06:57:31.058Z,95731.56
2023-07-23T06:58:37.358Z,95728.69
2023-07-23T06:59:38.961Z,95721.72
2023-07-23T07:00:40.573Z,95721.94
2023-07-23T07:01:42.286Z,95731.47
2023-07-23T07:02:44.006Z,95727.25
2023-07-23T07:03:45.722Z,95722.84
2023-07-23T07:04:47.470Z,95722.84
2023-07-23T07:05:49.092Z,95717.47
2023-07-23T07:06:50.680Z,95724.44
2023-07-23T07:07:52.255Z,95726.38
2023-07-23T07:08:53.851Z,95722.00
2023-07-23T07:09:55.482Z,95725.78
2023-07-23T07:11:02.113Z,95724.56
2023-07-23T07:12:03.949Z,95724.38
2023-07-23T07:13:05.512Z,95717.41
2023-07-23T07:14:07.149Z,95734.84
2023-07-23T07:15:09.081Z,95713.44
2023-07-23T07:16:11.537Z,95730.66
2023-07-23T07:17:13.203Z,95714.56
2023-07-23T07:18:14.881Z,95722.22
2023-07-23T07:19:18.000Z,95711.28
2023-07-23T07:20:19.604Z,95720.00
2023-07-23T07:21:21.237Z,95715.16
2023-07-23T07:22:22.820Z,95714.63
2023-07-23T07:23:25.733Z,95712.25
2023-07-23T07:24:27.400Z,95727.22
2023-07-23T07:25:29.069Z,95716.09
2023-07-23T07:26:30.653Z,95726.69
2023-07-23T07:27:32.232Z,95709.53
2023-07-23T07:28:34.452Z,95714.47
2023-07-23T07:29:39.690Z,95717.75
2023-07-23T07:30:41.523Z,95709.22
2023-07-23T07:31:43.166Z,95704.91
2023-07-23T07:32:44.825Z,95721.56
2023-07-23T07:33:46.430Z,95713.13
2023-07-23T07:34:48.033Z,95717.44
2023-07-23T07:35:50.817Z,95708.50
2023-07-23T07:36:53.328Z,95709.03
2023-07-23T07:37:54.873Z,95706.13
2023-07-23T07:38:56.428Z,95712.91
2023-07-23T07:39:58.096Z,95707.28
2023-07-23T07:40:59.841Z,95703.69
2023-07-23T07:42:01.456Z,95709.84
2023-07-23T07:43:03.051Z,95703.00
2023-07-23T07:44:04.711Z,95712.16
2023-07-23T07:45:06.992Z,95694.16
2023-07-23T07:46:09.593Z,95697.28
2023-07-23T07:47:11.533Z,95706.34
2023-07-23T07:48:13.125Z,95705.53
2023-07-23T07:49:15.486Z,95706.47
2023-07-23T07:50:17.095Z,95708.00
2023-07-23T07:51:18.730Z,95707.22
2023-07-23T07:52:20.335Z,95702.34
2023-07-23T07:53:21.899Z,95696.56
2023-07-23T07:54:23.515Z,95710.47
2023-07-23T07:55:25.102Z,95703.63
2023-07-23T07:56:26.984Z,95693.72
2023-07-23T07:57:28.900Z,95708.19
2023-07-23T07:58:31.425Z,95704.25
2023-07-23T07:59:33.289Z,95702.88
2023-07-23T08:00:35.214Z,95701.72
2023-07-23T08:01:37.018Z,95700.38
2023-07-23T08:02:39.371Z,95691.75
2023-07-23T08:03:41.491Z,95695.09
2023-07-23T08:04:43.346Z,95694.66
2023-07-23T08:05:45.324Z,95695.13
2023-07-23T08:06:47.145Z,95690.59
2023-07-23T08:07:49.013Z,95686.47
2023-07-23T08:08:51.793Z,95698.84
2023-07-23T08:09:59.013Z,95683.31
2023-07-23T08:11:02.232Z,95687.06
2023-07-23T08:12:06.630Z,95690.69
2023-07-23T08:13:10.621Z,95687.97
2023-07-23T08:14:13.820Z,95690.44
2023-07-23T08:15:17.116Z,95692.19
2023-07-23T08:16:19.018Z,95692.31
2023-07-23T08:17:21.543Z,95690.22
2023-07-23T08:18:24.614Z,95691.50
2023-07-23T08:19:26.454Z,95693.38
2023-07-23T08:20:28.880Z,95687.66
2023-07-23T08:21:31.097Z,95680.91
2023-07-23T08:22:32.944Z,95682.31
2023-07-23T08:23:36.988Z,95682.28
2023-07-23T08:24:38.753Z,95684.66
2023-07-23T08:25:41.233Z,95684.94
2023-07-23T08:26:43.873Z,95674.28
2023-07-23T08:27:46.816Z,95674.69
2023-07-23T08:28:52.880Z,95678.03
2023-07-23T08:29:54.624Z,95683.03
2023-07-23T08:30:57.659Z,95667.38
2023-07-23T08:31:59.876Z,95673.66
2023-07-23T08:33:02.369Z,95682.16
2023-07-23T08:34:04.474Z,95670.72
2023-07-23T08:35:06.899Z,95675.78
2023-07-23T08:36:09.136Z,95669.78
2023-07-23T08:37:11.943Z,95674.03
2023-07-23T08:38:13.819Z,95678.06
2023-07-23T08:39:15.697Z,95679.25
2023-07-23T08:40:20.110Z,95684.22
2023-07-23T08:41:25.452Z,95686.88
2023-07-23T08:42:56.209Z,95682.09
2023-07-23T08:44:29.870Z,95680.38
2023-07-23T08:45:31.598Z,95669.69
2023-07-23T08:46:33.385Z,95675.75
2023-07-23T08:47:38.983Z,95669.66
2023-07-23T08:48:55.701Z,95683.88
2023-07-23T08:50:01.381Z,95672.19
2023-07-23T08:51:04.785Z,95669.81
2023-07-23T08:52:07.115Z,95675.97
2023-07-23T08:53:10.615Z,95676.06
2023-07-23T08:54:13.599Z,95673.38
2023-07-23T08:55:18.787Z,95684.47
2023-07-23T08:56:20.485Z,95681.75
2023-07-23T08:57:22.133Z,95680.13
2023-07-23T08:58:23.706Z,95681.63
2023-07-23T08:59:27.581Z,95675.22
2023-07-23T09:00:29.813Z,95675.56
2023-07-23T09:01:36.728Z,95676.38
2023-07-23T09:02:40.245Z,95675.88
2023-07-23T09:03:41.928Z,95671.81
2023-07-23T09:04:43.578Z,95671.94
2023-07-23T09:05:45.203Z,95671.78
2023-07-23T09:06:47.546Z,95668.16
2023-07-23T09:07:49.362Z,95686.06
2023-07-23T09:08:52.877Z,95685.47
2023-07-23T09:09:54.468Z,95671.91
2023-07-23T09:10:56.085Z,95670.94
2023-07-23T09:11:57.719Z,95667.00
2023-07-23T09:12:59.315Z,95678.34
2023-07-23T09:14:08.032Z,95665.69
2023-07-23T09:15:10.514Z,95684.97
2023-07-23T09:16:12.101Z,95675.03
2023-07-23T09:17:18.451Z,95675.06
2023-07-23T09:18:20.937Z,95667.44
2023-07-23T09:19:24.519Z,95657.13
2023-07-23T09:20:26.107Z,95672.13
2023-07-23T09:21:28.743Z,95671.53
2023-07-23T09:22:33.695Z,95661.91
2023-07-23T09:23:35.338Z,95677.13
2023-07-23T09:24:37.025Z,95668.69
2023-07-23T09:25:40.139Z,95669.78
2023-07-23T09:26:42.386Z,95673.06
2023-07-23T09:27:44.253Z,95671.41
2023-07-23T09:28:45.957Z,95661.31
2023-07-23T09:29:48.704Z,95671.50
2023-07-23T09:30:57.986Z,95662.56
2023-07-23T09:31:59.614Z,95673.25
2023-07-23T09:33:03.382Z,95667.72
2023-07-23T09:34:05.375Z,95663.09
2023-07-23T09:35:07.388Z,95664.47
2023-07-23T09:36:09.039Z,95665.81
2023-07-23T09:37:11.616Z,95673.75
2023-07-23T09:38:15.866Z,95667.44
2023-07-23T09:39:19.428Z,95671.00
2023-07-23T09:40:21.001Z,95668.31
2023-07-23T09:41:22.650Z,95657.50
2023-07-23T09:42:24.630Z,95664.53
2023-07-23T09:43:26.873Z,95650.34
2023-07-23T09:44:28.518Z,95654.22
2023-07-23T09:45:31.678Z,95662.78
2023-07-23T09:46:34.011Z,95660.22
2023-07-23T09:47:36.934Z,95658.56
2023-07-23T09:48:50.796Z,95657.47
2023-07-23T09:49:55.441Z,95663.34
2023-07-23T09:51:01.574Z,95657.50
2023-07-23T09:52:07.894Z,95673.31
2023-07-23T09:53:10.126Z,95660.31
2023-07-23T09:54:11.759Z,95656.97
2023-07-23T09:55:13.725Z,95654.84
2023-07-23T09:56:16.670Z,95659.69
2023-07-23T09:57:20.574Z,95670.84
2023-07-23T09:58:22.748Z,95659.75
2023-07-23T09:59:25.221Z,95651.13
2023-07-23T10:00:26.892Z,95648.78
2023-07-23T10:01:29.852Z,95648.75
2023-07-23T10:02:34.947Z,95664.41
2023-07-23T10:03:37.025Z,95646.56
2023-07-23T10:04:38.729Z,95659.72
2023-07-23T10:05:40.539Z,95660.94
2023-07-23T10:06:42.223Z,95661.00
2023-07-23T10:07:45.785Z,95657.66
2023-07-23T10:08:48.342Z,95651.75
2023-07-23T10:09:51.306Z,95651.81
2023-07-23T10:10:52.942Z,95661.94
2023-07-23T10:11:54.600Z,95658.06
2023-07-23T10:12:56.210Z,95655.44
2023-07-23T10:13:59.582Z,95637.44
2023-07-23T10:15:03.966Z,95654.84
2023-07-23T10:16:10.083Z,95643.56
2023-07-23T10:17:11.886Z,95652.34
2023-07-23T10:18:13.951Z,95641.50
2023-07-23T10:19:15.864Z,95654.66
2023-07-23T10:20:19.130Z,95657.47
2023-07-23T10:21:20.977Z,95643.44
2023-07-23T10:22:23.601Z,95646.69
2023-07-23T10:23:25.364Z,95650.47
2023-07-23T10:24:40.571Z,95651.19
2023-07-23T10:25:42.344Z,95648.47
2023-07-23T10:26:47.633Z,95648.94
2023-07-23T10:27:57.674Z,95636.78
2023-07-23T10:29:08.547Z,95644.47
2023-07-23T10:30:21.117Z,95625.38
2023-07-23T10:31:28.207Z,95634.50
2023-07-23T10:32:30.219Z,95627.47
2023-07-23T10:33:32.057Z,95634.72
2023-07-23T10:34:34.588Z,95662.75
2023-07-23T10:36:08.145Z,95658.66
2023-07-23T10:37:22.523Z,95647.41
2023-07-23T10:38:30.079Z,95644.09
2023-07-23T10:39:40.117Z,95651.66
2023-07-23T10:40:45.350Z,95638.22
2023-07-23T10:41:49.261Z,95656.47
2023-07-23T10:42:50.842Z,95646.09
2023-07-23T10:43:53.623Z,95647.16
2023-07-23T10:45:20.072Z,95650.34
2023-07-23T10:46:21.839Z,95645.00
2023-07-23T10:47:31.722Z,95634.25
2023-07-23T10:48:50.417Z,95643.31
2023-07-23T10:50:14.267Z,95638.47
2023-07-23T10:51:23.473Z,95625.47
2023-07-23T10:52:25.130Z,95630.97
2023-07-23T10:53:27.775Z,95634.69
2023-07-23T10:54:29.444Z,95642.72
2023-07-23T10:55:35.190Z,95638.50
2023-07-23T10:56:37.724Z,95630.53
2023-07-23T10:57:42.289Z,95641.63
2023-07-23T10:58:44.005Z,95644.16
2023-07-23T10:59:53.408Z,95634.69
2023-07-23T11:00:57.094Z,95636.25
2023-07-23T11:01:58.834Z,95627.16
2023-07-23T11:03:00.734Z,95641.63
2023-07-23T11:04:11.235Z,95637.44
2023-07-23T11:05:12.842Z,95637.53
2023-07-23T11:06:33.602Z,95619.53
2023-07-23T11:07:35.216Z,95634.72
2023-07-23T11:08:48.961Z,95632.31
2023-07-23T11:09:50.589Z,95635.94
2023-07-23T11:11:01.078Z,95626.06
2023-07-23T11:12:06.600Z,95618.38
2023-07-23T11:13:09.675Z,95622.19
2023-07-23T11:14:27.923Z,95622.09
2023-07-23T11:15:29.851Z,95626.47
2023-07-23T11:16:36.006Z,95620.22
2023-07-23T11:17:37.860Z,95620.72
2023-07-23T11:18:40.410Z,95635.50
2023-07-23T11:19:47.106Z,95620.41
2023-07-23T11:20:50.809Z,95612.22
2023-07-23T11:21:59.829Z,95618.50
2023-07-23T11:23:01.751Z,95603.84
2023-07-23T11:24:03.406Z,95611.78
2023-07-23T11:25:05.454Z,95609.63
2023-07-23T11:26:06.945Z,95614.66
2023-07-23T11:27:11.226Z,95610.16
2023-07-23T11:28:12.928Z,95610.19
2023-07-23T11:29:15.006Z,95597.63
2023-07-23T11:30:16.848Z,95619.88
2023-07-23T11:31:18.599Z,95621.78
2023-07-23T11:32:20.283Z,95601.41
2023-07-23T11:33:23.295Z,95608.22
2023-07-23T11:34:25.494Z,95614.66
2023-07-23T11:35:27.071Z,95612.38
2023-07-23T11:36:29.657Z,95592.53
2023-07-23T11:37:31.630Z,95598.31
2023-07-23T11:38:33.898Z,95575.53
2023-07-23T11:39:35.607Z,95594.13
2023-07-23T11:40:37.559Z,95593.41
2023-07-23T11:41:42.934Z,95598.69
2023-07-23T11:42:44.799Z,95587.06
2023-07-23T11:43:46.548Z,95584.88
2023-07-23T11:45:02.085Z,95581.00
2023-07-23T11:46:03.870Z,95592.19
2023-07-23T11:47:06.108Z,95585.44
2023-07-23T11:48:07.700Z,95597.63
2023-07-23T11:49:11.475Z,95604.53
2023-07-23T11:50:13.186Z,95588.19
2023-07-23T11:51:14.867Z,95587.56
2023-07-23T11:52:25.469Z,95584.59
2023-07-23T11:53:34.606Z,95589.91
2023-07-23T11:54:36.267Z,95589.38
2023-07-23T11:55:37.994Z,95587.22
2023-07-23T11:56:41.694Z,95590.41
2023-07-23T11:57:43.312Z,95585.00
2023-07-23T11:58:45.018Z,95590.88
2023-07-23T11:59:46.639Z,95590.53
2023-07-23T12:00:50.527Z,95597.03
2023-07-23T12:01:56.223Z,95582.28
2023-07-23T12:02:58.980Z,95581.72
2023-07-23T12:04:02.001Z,95587.66
2023-07-23T12:05:04.157Z,95596.13
2023-07-23T12:06:06.231Z,95587.47
2023-07-23T12:07:08.013Z,95576.34
2023-07-23T12:08:09.797Z,95585.50
2023-07-23T12:09:12.860Z,95561.47
2023-07-23T12:10:15.905Z,95578.91
2023-07-23T12:11:17.639Z,95579.38
2023-07-23T12:12:23.023Z,95576.47
2023-07-23T12:13:26.993Z,95580.22
2023-07-23T12:14:28.650Z,95571.28
2023-07-23T12:15:30.268Z,95560.28
2023-07-23T12:16:43.488Z,95566.13
2023-07-23T12:17:46.022Z,95561.97